createdAt,value
2018-12-30T00:02:21.508Z,78.90
2018-12-30T00:04:48.317Z,81.00
2018-12-30T00:07:15.283Z,79.40
2018-12-30T00:09:42.341Z,79.50
2018-12-30T00:12:09.309Z,80.00
2018-12-30T00:14:35.813Z,79.70
2018-12-30T00:17:02.390Z,79.00
2018-12-30T00:19:28.904Z,77.80
2018-12-30T00:21:56.856Z,79.40
2018-12-30T00:24:23.780Z,81.90
2018-12-30T00:26:50.316Z,81.70
2018-12-30T00:29:16.820Z,79.90
2018-12-30T00:31:43.375Z,80.40
2018-12-30T00:34:10.015Z,78.70
2018-12-30T00:36:36.641Z,78.00
2018-12-30T00:39:03.194Z,77.60
2018-12-30T00:41:29.939Z,80.20
2018-12-30T00:43:56.970Z,79.40
2018-12-30T00:46:23.634Z,78.20
2018-12-30T00:48:50.151Z,79.90
2018-12-30T00:51:17.335Z,78.90
2018-12-30T00:53:44.224Z,80.00
2018-12-30T00:56:10.791Z,81.60
2018-12-30T00:58:37.315Z,81.90
2018-12-30T01:01:03.934Z,82.00
2018-12-30T01:03:30.456Z,82.20
2018-12-30T01:05:56.982Z,79.90
2018-12-30T01:08:23.543Z,78.80
2018-12-30T01:10:57.034Z,80.50
2018-12-30T01:13:24.517Z,79.60
2018-12-30T01:15:51.113Z,79.10
2018-12-30T01:18:17.662Z,79.90
2018-12-30T01:20:44.787Z,79.90
2018-12-30T01:23:11.393Z,80.20
2018-12-30T01:25:37.958Z,81.80
2018-12-30T01:28:04.488Z,81.90
2018-12-30T01:30:35.239Z,80.10
2018-12-30T01:33:01.756Z,78.90
2018-12-30T01:35:28.369Z,79.90
2018-12-30T01:37:54.923Z,80.00
2018-12-30T01:40:21.457Z,79.50
2018-12-30T01:42:48.026Z,79.30
2018-12-30T01:45:14.589Z,78.30
2018-12-30T01:47:41.154Z,80.30
2018-12-30T01:50:07.689Z,80.40
2018-12-30T01:52:34.300Z,79.00
2018-12-30T01:55:00.908Z,80.60
2018-12-30T01:57:27.490Z,81.80
2018-12-30T01:59:54.324Z,81.20
2018-12-30T02:02:20.896Z,83.00
2018-12-30T02:04:47.522Z,83.50
2018-12-30T02:07:14.166Z,82.60
2018-12-30T02:09:40.794Z,83.90
2018-12-30T02:12:07.322Z,83.40
2018-12-30T02:14:34.146Z,82.40
2018-12-30T02:17:00.718Z,84.10
2018-12-30T02:19:27.255Z,82.40
2018-12-30T02:21:53.825Z,83.60
2018-12-30T02:24:20.408Z,85.10
2018-12-30T02:26:46.973Z,83.70
2018-12-30T02:29:13.988Z,84.80
2018-12-30T02:31:41.263Z,84.80
2018-12-30T02:34:07.833Z,85.60
2018-12-30T02:36:34.444Z,86.90
2018-12-30T02:39:01.007Z,87.00
2018-12-30T02:41:27.576Z,85.40
2018-12-30T02:43:54.414Z,85.90
2018-12-30T02:46:21.113Z,84.70
2018-12-30T02:48:47.712Z,86.00
2018-12-30T02:51:14.274Z,88.00
2018-12-30T02:53:41.265Z,87.00
2018-12-30T02:56:08.075Z,86.80
2018-12-30T02:58:34.940Z,86.10
2018-12-30T03:01:01.814Z,87.00
2018-12-30T03:03:28.431Z,87.00
2018-12-30T03:05:55.057Z,86.40
2018-12-30T03:08:21.597Z,85.60
2018-12-30T03:10:48.157Z,86.70
2018-12-30T03:13:14.667Z,87.70
2018-12-30T03:15:41.697Z,89.10
2018-12-30T03:18:08.274Z,87.70
2018-12-30T03:20:34.894Z,84.30
2018-12-30T03:23:01.417Z,84.50
2018-12-30T03:25:28.006Z,84.80
2018-12-30T03:27:54.739Z,83.50
2018-12-30T03:30:21.508Z,82.00
2018-12-30T03:32:48.022Z,82.10
2018-12-30T03:35:14.541Z,82.70
2018-12-30T03:37:42.074Z,81.50
2018-12-30T03:40:08.593Z,80.50
2018-12-30T03:42:35.165Z,81.10
2018-12-30T03:45:01.862Z,82.40
2018-12-30T03:47:28.446Z,80.10
2018-12-30T03:49:55.285Z,79.20
2018-12-30T03:52:21.801Z,79.20
2018-12-30T03:54:48.338Z,79.80
2018-12-30T03:57:14.905Z,80.10
2018-12-30T03:59:41.930Z,79.20
2018-12-30T04:02:08.469Z,81.50
2018-12-30T04:04:35.180Z,81.80
2018-12-30T04:07:01.988Z,83.80
2018-12-30T04:09:28.545Z,82.70
2018-12-30T04:11:55.137Z,81.90
2018-12-30T04:14:21.673Z,81.10
2018-12-30T04:16:48.223Z,79.40
2018-12-30T04:19:14.781Z,78.20
2018-12-30T04:21:42.087Z,77.20
2018-12-30T04:24:08.877Z,80.10
2018-12-30T04:26:35.443Z,82.40
2018-12-30T04:29:02.082Z,80.50
2018-12-30T04:31:28.627Z,79.20
2018-12-30T04:33:55.216Z,80.80
2018-12-30T04:36:21.769Z,84.00
2018-12-30T04:38:48.334Z,83.20
2018-12-30T04:41:15.163Z,82.60
2018-12-30T04:43:42.276Z,82.10
2018-12-30T04:46:08.858Z,79.60
2018-12-30T04:48:35.381Z,78.60
2018-12-30T04:51:01.888Z,77.50
2018-12-30T04:53:28.480Z,76.80
2018-12-30T04:55:55.161Z,76.70
2018-12-30T04:58:21.710Z,80.00
2018-12-30T05:00:48.229Z,81.00
2018-12-30T05:03:14.814Z,81.50
2018-12-30T05:05:42.408Z,83.10
2018-12-30T05:08:08.943Z,80.80
2018-12-30T05:10:35.643Z,79.40
2018-12-30T05:13:02.244Z,78.80
2018-12-30T05:15:28.864Z,78.90
2018-12-30T05:17:55.429Z,78.30
2018-12-30T05:20:22.155Z,78.70
2018-12-30T05:22:48.671Z,78.30
2018-12-30T05:25:15.385Z,77.90
2018-12-30T05:27:42.741Z,76.80
2018-12-30T05:30:09.330Z,75.90
2018-12-30T05:32:35.869Z,76.70
2018-12-30T05:35:02.439Z,80.20
2018-12-30T05:37:28.974Z,78.90
2018-12-30T05:39:55.533Z,79.20
2018-12-30T05:42:22.056Z,79.50
2018-12-30T05:44:48.606Z,78.10
2018-12-30T05:47:15.237Z,78.30
2018-12-30T05:49:42.820Z,76.50
2018-12-30T05:52:09.351Z,78.90
2018-12-30T05:54:35.940Z,80.40
2018-12-30T05:57:02.521Z,78.20
2018-12-30T05:59:29.122Z,77.60
2018-12-30T06:01:55.655Z,79.20
2018-12-30T06:04:22.233Z,77.50
2018-12-30T06:06:48.767Z,78.40
2018-12-30T06:09:15.347Z,77.50
2018-12-30T06:11:43.055Z,77.80
2018-12-30T06:14:09.712Z,78.50
2018-12-30T06:16:36.432Z,80.20
2018-12-30T06:19:02.977Z,78.10
2018-12-30T06:21:29.511Z,77.60
2018-12-30T06:23:56.063Z,78.40
2018-12-30T06:26:22.701Z,79.40
2018-12-30T06:28:49.323Z,78.30
2018-12-30T06:31:15.989Z,81.10
2018-12-30T06:33:43.335Z,81.00
2018-12-30T06:36:09.889Z,80.40
2018-12-30T06:38:36.576Z,78.20
2018-12-30T06:41:03.095Z,79.30
2018-12-30T06:43:29.813Z,78.70
2018-12-30T06:45:56.377Z,79.00
2018-12-30T06:48:22.950Z,78.50
2018-12-30T06:50:49.494Z,78.60
2018-12-30T06:53:16.035Z,77.40
2018-12-30T06:55:42.576Z,79.40
2018-12-30T06:58:09.085Z,80.40
2018-12-30T07:00:35.732Z,80.70
2018-12-30T07:03:02.283Z,82.80
2018-12-30T07:05:28.919Z,84.30
2018-12-30T07:07:55.509Z,82.70
2018-12-30T07:10:22.094Z,80.80
2018-12-30T07:12:48.622Z,80.50
2018-12-30T07:15:15.884Z,79.80
2018-12-30T07:17:42.429Z,78.80
2018-12-30T07:20:08.976Z,79.80
2018-12-30T07:22:35.544Z,79.90
2018-12-30T07:25:02.068Z,79.00
2018-12-30T07:30:14.185Z,78.90
2018-12-30T07:32:40.784Z,77.70
2018-12-30T07:35:07.348Z,80.20
2018-12-30T07:37:33.921Z,79.10
2018-12-30T07:40:00.453Z,79.00
2018-12-30T07:42:27.027Z,79.80
2018-12-30T07:44:53.763Z,80.50
2018-12-30T07:47:20.289Z,79.40
2018-12-30T07:49:46.803Z,79.10
2018-12-30T07:52:13.343Z,80.30
2018-12-30T07:54:41.785Z,81.30
2018-12-30T07:57:08.481Z,80.40
2018-12-30T07:59:35.143Z,80.70
2018-12-30T08:02:01.632Z,79.40
2018-12-30T08:04:28.155Z,78.10
2018-12-30T08:06:54.765Z,78.70
2018-12-30T08:09:21.289Z,80.80
2018-12-30T08:11:47.826Z,81.00
2018-12-30T08:14:15.677Z,82.00
2018-12-30T08:16:42.213Z,80.70
2018-12-30T08:19:08.720Z,79.50
2018-12-30T08:21:35.333Z,80.90
2018-12-30T08:24:01.862Z,82.20
2018-12-30T08:26:28.395Z,82.10
2018-12-30T08:28:54.958Z,81.90
2018-12-30T08:31:21.496Z,82.70
2018-12-30T08:33:48.033Z,83.10
2018-12-30T08:36:14.574Z,82.40
2018-12-30T08:38:41.110Z,81.80
2018-12-30T08:41:07.697Z,82.20
2018-12-30T08:43:34.225Z,81.20
2018-12-30T08:46:00.766Z,79.80
2018-12-30T08:48:27.305Z,79.40
2018-12-30T08:50:53.848Z,79.00
2018-12-30T08:53:20.389Z,79.30
2018-12-30T08:55:47.074Z,79.90
2018-12-30T08:58:13.626Z,79.50
2018-12-30T09:00:40.190Z,79.40
2018-12-30T09:03:06.730Z,79.60
2018-12-30T09:05:33.351Z,79.30
2018-12-30T09:07:59.858Z,79.10
2018-12-30T09:10:26.395Z,79.60
2018-12-30T09:12:52.928Z,80.10
2018-12-30T09:15:19.885Z,79.00
2018-12-30T09:17:47.554Z,78.50
2018-12-30T09:20:14.122Z,78.60
2018-12-30T09:22:40.667Z,80.00
2018-12-30T09:25:08.423Z,79.30
2018-12-30T09:27:34.982Z,77.70
2018-12-30T09:30:01.503Z,79.50
2018-12-30T09:32:28.978Z,79.70
2018-12-30T09:34:57.335Z,80.80
2018-12-30T09:37:23.846Z,78.80
2018-12-30T09:39:50.356Z,78.50
2018-12-30T09:42:17.703Z,79.20
2018-12-30T09:44:44.155Z,80.80
2018-12-30T09:47:10.691Z,82.40
2018-12-30T09:49:37.242Z,82.90
2018-12-30T09:52:04.243Z,81.10
2018-12-30T09:54:30.763Z,78.50
2018-12-30T09:56:57.305Z,78.20
2018-12-30T09:59:23.852Z,77.70
2018-12-30T10:01:50.414Z,78.50
2018-12-30T10:04:17.839Z,78.30
2018-12-30T10:06:44.440Z,78.30
2018-12-30T10:09:11.762Z,78.40
2018-12-30T10:11:38.277Z,77.60
2018-12-30T10:14:04.821Z,77.40
2018-12-30T10:16:34.116Z,78.10
2018-12-30T10:19:00.682Z,75.90
2018-12-30T10:21:27.184Z,75.10
2018-12-30T10:23:53.691Z,75.80
2018-12-30T10:26:20.427Z,73.20
2018-12-30T10:28:48.083Z,71.90
2018-12-30T10:31:14.582Z,72.80
2018-12-30T10:33:41.213Z,72.00
2018-12-30T10:36:09.333Z,73.70
2018-12-30T10:38:35.881Z,73.90
2018-12-30T10:41:02.552Z,73.10
2018-12-30T10:43:29.061Z,71.10
2018-12-30T10:46:01.159Z,71.20
2018-12-30T10:48:27.691Z,71.40
2018-12-30T10:50:54.197Z,72.40
2018-12-30T10:53:20.722Z,73.10
2018-12-30T10:55:48.667Z,71.20
2018-12-30T10:58:15.233Z,73.10
2018-12-30T11:00:41.770Z,71.80
2018-12-30T11:03:08.298Z,72.70
2018-12-30T11:05:39.525Z,73.50
2018-12-30T11:08:06.033Z,73.10
2018-12-30T11:10:32.606Z,73.20
2018-12-30T11:12:59.357Z,72.80
2018-12-30T11:15:25.892Z,73.00
2018-12-30T11:17:52.437Z,70.40
2018-12-30T11:20:19.954Z,70.20
2018-12-30T11:22:46.531Z,70.80
2018-12-30T11:25:13.140Z,70.80
2018-12-30T11:27:39.671Z,70.40
2018-12-30T11:30:06.251Z,70.10
2018-12-30T11:32:32.813Z,69.00
2018-12-30T11:34:59.350Z,69.70
2018-12-30T11:37:25.938Z,69.10
2018-12-30T11:39:52.571Z,67.40
2018-12-30T11:42:19.279Z,68.00
2018-12-30T11:44:45.779Z,67.70
2018-12-30T11:47:12.344Z,69.30
2018-12-30T11:49:38.902Z,69.20
2018-12-30T11:52:05.461Z,69.40
2018-12-30T11:54:32.037Z,70.20
2018-12-30T11:56:58.631Z,71.80
2018-12-30T11:59:25.248Z,71.00
2018-12-30T12:01:51.966Z,70.10
2018-12-30T12:04:19.529Z,70.50
2018-12-30T12:06:48.975Z,70.10
2018-12-30T12:09:15.550Z,69.00
2018-12-30T12:11:42.138Z,68.70
2018-12-30T12:14:08.759Z,67.30
2018-12-30T12:16:36.200Z,67.30
2018-12-30T12:19:02.697Z,68.00
2018-12-30T12:21:29.322Z,67.20
2018-12-30T12:23:56.217Z,66.90
2018-12-30T12:26:24.794Z,68.10
2018-12-30T12:28:51.039Z,67.20
2018-12-30T12:31:19.997Z,67.50
2018-12-30T12:33:46.491Z,65.60
2018-12-30T12:36:13.021Z,63.60
2018-12-30T12:38:39.605Z,65.30
2018-12-30T12:41:06.085Z,63.60
2018-12-30T12:43:32.607Z,63.20
2018-12-30T12:45:59.187Z,63.60
2018-12-30T12:48:25.781Z,64.00
2018-12-30T12:50:52.303Z,62.40
2018-12-30T12:53:21.187Z,60.70
2018-12-30T12:55:50.176Z,60.00
2018-12-30T12:58:17.249Z,59.20
2018-12-30T13:00:44.062Z,60.30
2018-12-30T13:03:10.591Z,59.80
2018-12-30T13:05:37.260Z,59.30
2018-12-30T13:08:03.745Z,59.70
2018-12-30T13:10:30.267Z,59.80
2018-12-30T13:12:56.789Z,59.80
2018-12-30T13:15:23.336Z,60.10
2018-12-30T13:17:50.657Z,59.10
2018-12-30T13:20:17.210Z,58.90
2018-12-30T13:22:43.850Z,58.70
2018-12-30T13:25:10.393Z,57.30
2018-12-30T13:27:37.131Z,55.90
2018-12-30T13:30:05.557Z,57.70
2018-12-30T13:32:32.152Z,57.20
2018-12-30T13:34:58.694Z,59.10
2018-12-30T13:37:36.505Z,59.30
2018-12-30T13:40:03.066Z,59.50
2018-12-30T13:42:32.185Z,60.40
2018-12-30T13:44:58.725Z,60.10
2018-12-30T13:47:26.771Z,57.70
2018-12-30T13:49:53.327Z,57.70
2018-12-30T13:52:19.944Z,57.00
2018-12-30T13:54:47.872Z,57.00
2018-12-30T13:57:16.176Z,57.20
2018-12-30T13:59:42.792Z,58.30
2018-12-30T14:02:09.399Z,59.10
2018-12-30T14:04:38.218Z,58.80
2018-12-30T14:07:04.835Z,58.80
2018-12-30T14:09:31.398Z,59.10
2018-12-30T14:11:58.280Z,58.40
2018-12-30T14:14:24.951Z,57.80
2018-12-30T14:16:51.583Z,58.50
2018-12-30T14:19:18.087Z,58.10
2018-12-30T14:21:44.627Z,58.80
2018-12-30T14:24:11.160Z,58.70
2018-12-30T14:26:37.761Z,58.30
2018-12-30T14:29:04.286Z,59.60
2018-12-30T14:31:30.801Z,59.10
2018-12-30T14:33:57.359Z,57.40
2018-12-30T14:36:23.872Z,56.90
2018-12-30T14:38:50.375Z,56.90
2018-12-30T14:41:16.903Z,57.10
2018-12-30T14:43:43.499Z,57.70
2018-12-30T14:46:10.000Z,58.10
2018-12-30T14:48:37.747Z,57.70
2018-12-30T14:51:04.288Z,58.30
2018-12-30T14:53:30.820Z,58.60
2018-12-30T14:55:57.336Z,59.30
2018-12-30T14:58:34.560Z,59.10
2018-12-30T15:01:01.083Z,58.90
2018-12-30T15:03:27.602Z,58.40
2018-12-30T15:05:54.879Z,59.50
2018-12-30T15:08:24.696Z,59.30
2018-12-30T15:10:52.325Z,59.50
2018-12-30T15:13:18.909Z,60.00
2018-12-30T15:15:45.440Z,60.40
2018-12-30T15:18:15.503Z,60.50
2018-12-30T15:20:42.057Z,61.10
2018-12-30T15:23:08.684Z,61.10
2018-12-30T15:25:35.199Z,60.20
2018-12-30T15:28:04.213Z,60.70
2018-12-30T15:30:30.747Z,60.20
2018-12-30T15:32:57.264Z,60.20
2018-12-30T15:35:23.822Z,59.50
2018-12-30T15:37:50.360Z,59.50
2018-12-30T15:40:16.876Z,59.50
2018-12-30T15:42:43.511Z,59.30
2018-12-30T15:45:10.096Z,59.40
2018-12-30T15:47:36.639Z,58.70
2018-12-30T15:50:03.162Z,58.50
2018-12-30T15:52:29.665Z,58.70
2018-12-30T15:54:56.192Z,59.30
2018-12-30T15:57:22.717Z,58.80
2018-12-30T15:59:49.215Z,58.70
2018-12-30T16:02:15.737Z,58.20
2018-12-30T16:17:25.743Z,58.80
2018-12-30T16:19:52.288Z,58.10
2018-12-30T16:22:19.529Z,57.80
2018-12-30T16:24:46.056Z,56.90
2018-12-30T16:27:12.622Z,56.80
2018-12-30T16:29:39.116Z,58.00
2018-12-30T16:32:06.972Z,57.40
2018-12-30T16:34:33.648Z,57.30
2018-12-30T16:37:00.188Z,57.70
2018-12-30T16:39:26.744Z,57.70
2018-12-30T16:41:53.289Z,56.90
2018-12-30T16:44:20.712Z,57.00
2018-12-30T16:46:47.250Z,57.00
2018-12-30T16:49:15.461Z,57.00
2018-12-30T16:51:42.108Z,57.70
2018-12-30T16:54:08.725Z,57.90
2018-12-30T16:56:35.231Z,57.90
2018-12-30T16:59:01.757Z,57.50
2018-12-30T17:01:28.290Z,57.70
2018-12-30T17:03:54.795Z,57.50
2018-12-30T17:06:21.335Z,57.50
2018-12-30T17:08:49.871Z,57.20
2018-12-30T17:11:17.366Z,57.30
2018-12-30T17:13:43.890Z,57.10
2018-12-30T17:16:10.735Z,57.60
2018-12-30T17:18:37.648Z,57.80
2018-12-30T17:21:04.160Z,57.40
2018-12-30T17:23:30.782Z,57.30
2018-12-30T17:25:57.310Z,57.20
2018-12-30T17:28:23.849Z,56.50
2018-12-30T17:30:51.415Z,56.50
2018-12-30T17:33:18.011Z,56.50
2018-12-30T17:35:46.202Z,56.80
2018-12-30T17:38:12.929Z,56.90
2018-12-30T17:40:39.462Z,57.10
2018-12-30T17:43:05.981Z,57.00
2018-12-30T17:45:32.510Z,57.50
2018-12-30T17:47:59.021Z,57.20
2018-12-30T17:50:25.528Z,57.00
2018-12-30T17:52:52.731Z,56.90
2018-12-30T17:55:19.350Z,56.90
2018-12-30T17:57:45.872Z,56.50
2018-12-30T18:00:12.483Z,56.30
2018-12-30T18:02:38.991Z,56.60
2018-12-30T18:05:05.637Z,56.40
2018-12-30T18:07:32.266Z,56.10
2018-12-30T18:10:00.092Z,56.70
2018-12-30T18:12:26.834Z,56.20
2018-12-30T18:14:56.478Z,56.20
2018-12-30T18:17:23.335Z,56.00
2018-12-30T18:20:09.357Z,56.40
2018-12-30T18:22:36.112Z,56.40
2018-12-30T18:25:02.688Z,56.20
2018-12-30T18:27:29.208Z,55.70
2018-12-30T18:29:56.191Z,55.90
2018-12-30T18:32:22.765Z,55.70
2018-12-30T18:34:49.407Z,55.70
2018-12-30T18:37:17.272Z,55.50
2018-12-30T18:39:46.896Z,55.50
2018-12-30T18:42:13.485Z,55.70
2018-12-30T18:44:41.838Z,55.30
2018-12-30T18:47:08.497Z,55.50
2018-12-30T18:49:35.025Z,55.70
2018-12-30T18:52:01.655Z,55.60
2018-12-30T18:54:28.324Z,55.60
2018-12-30T18:56:55.000Z,55.40
2018-12-30T18:59:21.612Z,55.40
2018-12-30T19:01:48.220Z,55.30
2018-12-30T19:04:14.787Z,54.90
2018-12-30T19:06:41.394Z,55.10
2018-12-30T19:09:07.916Z,54.70
2018-12-30T19:11:34.484Z,54.70
2018-12-30T19:14:01.067Z,55.00
2018-12-30T19:16:27.707Z,55.10
2018-12-30T19:18:54.324Z,55.10
2018-12-30T19:21:21.054Z,55.00
2018-12-30T19:23:47.688Z,54.80
2018-12-30T19:26:14.653Z,54.90
2018-12-30T19:28:41.374Z,55.10
2018-12-30T19:31:07.958Z,54.90
2018-12-30T19:33:34.525Z,54.60
2018-12-30T19:36:01.112Z,54.80
2018-12-30T19:38:27.757Z,54.70
2018-12-30T19:40:58.545Z,55.00
2018-12-30T19:43:25.169Z,54.70
2018-12-30T19:45:51.706Z,54.50
2018-12-30T19:48:18.213Z,54.70
2018-12-30T19:50:49.305Z,54.20
2018-12-30T19:53:17.647Z,54.30
2018-12-30T19:55:44.182Z,53.80
2018-12-30T19:58:10.787Z,53.50
2018-12-30T20:00:37.404Z,53.60
2018-12-30T20:03:04.125Z,53.70
2018-12-30T20:05:30.964Z,53.80
2018-12-30T20:07:57.728Z,53.30
2018-12-30T20:10:25.280Z,53.90
2018-12-30T20:12:51.831Z,54.30
2018-12-30T20:15:18.380Z,54.60
2018-12-30T20:17:44.958Z,54.80
2018-12-30T20:20:11.599Z,54.90
2018-12-30T20:22:38.140Z,54.20
2018-12-30T20:25:04.953Z,54.00
2018-12-30T20:27:32.671Z,53.60
2018-12-30T20:30:02.270Z,53.70
2018-12-30T20:32:28.799Z,53.80
2018-12-30T20:34:57.658Z,53.80
2018-12-30T20:37:24.220Z,54.20
2018-12-30T20:39:50.997Z,55.00
2018-12-30T20:42:17.585Z,55.40
2018-12-30T20:44:44.134Z,55.40
2018-12-30T20:47:10.677Z,55.00
2018-12-30T20:49:37.297Z,55.70
2018-12-30T20:52:04.516Z,55.20
2018-12-30T20:54:31.182Z,55.40
2018-12-30T20:56:58.706Z,55.00
2018-12-30T20:59:25.266Z,55.40
2018-12-30T21:01:51.915Z,55.30
2018-12-30T21:04:20.183Z,55.60
2018-12-30T21:06:46.754Z,55.30
2018-12-30T21:09:13.308Z,55.30
2018-12-30T21:11:41.088Z,55.10
2018-12-30T21:14:08.109Z,55.10
2018-12-30T21:16:35.339Z,55.60
2018-12-30T21:19:01.925Z,55.50
2018-12-30T21:21:28.470Z,55.40
2018-12-30T21:23:58.216Z,55.00
2018-12-30T21:26:24.851Z,55.50
2018-12-30T21:28:53.702Z,55.10
2018-12-30T21:31:24.054Z,55.10
2018-12-30T21:33:52.762Z,55.60
2018-12-30T21:36:20.979Z,56.00
2018-12-30T21:38:47.509Z,55.40
2018-12-30T21:41:14.408Z,55.90
2018-12-30T21:43:41.119Z,56.00
2018-12-30T21:46:07.709Z,56.10
2018-12-30T21:48:35.160Z,57.10
2018-12-30T21:51:01.773Z,57.30
2018-12-30T21:53:29.168Z,57.80
2018-12-30T21:55:55.735Z,57.60
2018-12-30T21:58:22.296Z,57.90
2018-12-30T22:00:48.835Z,58.90
2018-12-30T22:03:15.567Z,59.30
2018-12-30T22:05:44.887Z,57.90
2018-12-30T22:08:11.516Z,57.70
2018-12-30T22:10:38.138Z,57.70
2018-12-30T22:13:05.795Z,57.70
2018-12-30T22:15:32.371Z,57.60
2018-12-30T22:17:59.017Z,57.90
2018-12-30T22:20:25.623Z,58.20
2018-12-30T22:22:52.467Z,58.20
2018-12-30T22:25:19.294Z,58.30
2018-12-30T22:27:46.127Z,58.40
2018-12-30T22:30:13.330Z,57.80
2018-12-30T22:32:40.811Z,59.10
2018-12-30T22:35:07.375Z,59.20
2018-12-30T22:37:33.956Z,59.00
2018-12-30T22:40:01.770Z,59.10
2018-12-30T22:42:32.940Z,59.20
2018-12-30T22:44:58.857Z,58.70
2018-12-30T22:47:25.463Z,58.50
2018-12-30T22:49:54.262Z,59.00
2018-12-30T22:52:22.006Z,59.70
2018-12-30T22:54:48.560Z,60.50
2018-12-30T22:57:15.158Z,61.10
2018-12-30T22:59:41.725Z,61.30
2018-12-30T23:02:09.995Z,61.00
2018-12-30T23:04:38.535Z,61.70
2018-12-30T23:07:08.449Z,62.20
2018-12-30T23:09:35.119Z,62.30
2018-12-30T23:12:05.120Z,61.50
2018-12-30T23:14:33.246Z,61.00
2018-12-30T23:17:00.324Z,61.00
2018-12-30T23:19:26.862Z,62.00
2018-12-30T23:21:57.084Z,63.00
2018-12-30T23:24:24.558Z,63.00
2018-12-30T23:26:51.161Z,63.60
2018-12-30T23:29:17.921Z,62.70
2018-12-30T23:31:44.707Z,62.60
2018-12-30T23:34:11.256Z,62.60
2018-12-30T23:36:37.938Z,62.70
2018-12-30T23:39:04.553Z,63.40
2018-12-30T23:41:31.127Z,64.40
2018-12-30T23:44:00.023Z,63.70
2018-12-30T23:46:27.159Z,63.70
2018-12-30T23:48:56.143Z,63.30
2018-12-30T23:51:22.671Z,62.60
2018-12-30T23:53:49.356Z,63.00
2018-12-30T23:56:15.965Z,62.80
2018-12-30T23:58:42.567Z,62.90
